Time;durP1;ratioP1;P1;durP2;ratioP2;P2;SDS_P1;SDS_P2;PMS_P1;PMS_P2;Temp;Humidity;BMP_temperature;BMP_pressure;BME280_temperature;BME280_humidity;BME280_pressure;Samples;Min_cycle;Max_cycle;Signal;HPM_P1;HPM_P2
2022/05/05 00:01:47;;;;;;;;;;;;;;;;;;5012834;28;1184;-77
2022/05/05 00:04:12;;;;;;;;;;;;;;;;;;5025424;28;1149;-77
2022/05/05 00:06:38;;;;;;;;;;;;;;;;;;5020734;28;1169;-77
2022/05/05 00:09:04;;;;;;;;;;;;;;;;;;5008839;28;1288;-78
2022/05/05 00:14:32;;;;;;;;;;;;;;;;;;5024695;28;1052;-78
2022/05/05 00:16:59;;;;;;;;;;;;;;;;;;5024243;28;1121;-77
2022/05/05 00:19:25;;;;;;;;;;;;;;;;;;5023678;28;1874;-77
2022/05/05 00:21:50;;;;;;;;;;;;;;;;;;5022348;28;1257;-78
2022/05/05 00:24:18;;;;;;;;;;;;;;;;;;5026331;28;1300;-77
2022/05/05 00:26:44;;;;;;;;;;;;;;;;;;5040931;28;1331;-78
2022/05/05 00:29:09;;;;;;;;;;;;;;;;;;5044456;28;1141;-77
2022/05/05 00:31:35;;;;;;;;;;;;;;;;;;5046170;28;1504;-78
2022/05/05 00:34:00;;;;;;;;;;;;;;;;;;5027714;28;1287;-76
2022/05/05 00:36:26;;;;;;;;;;;;;;;;;;5038146;28;1145;-79
2022/05/05 00:38:51;;;;;;;;;;;;;;;;;;5036660;28;1938;-77
2022/05/05 00:41:16;;;;;;;;;;;;;;;;;;5023202;28;1332;-77
2022/05/05 00:43:42;;;;;;;;;;;;;;;;;;5044943;28;1149;-77
2022/05/05 00:46:08;;;;;;;;;;;;;;;;;;5042992;28;1244;-77
2022/05/05 00:48:33;;;;;;;;;;;;;;;;;;5045045;28;1283;-76
2022/05/05 00:50:58;;;;;;;;;;;;;;;;;;5005973;28;1272;-76
2022/05/05 00:53:23;;;;;;;;;;;;;;;;;;5030131;28;1245;-76
2022/05/05 00:55:51;;;;;;;;;;;;;;;;;;5044656;28;1164;-78
2022/05/05 00:58:17;;;;;;;;;;;;;;;;;;5041718;28;1936;-76
2022/05/05 01:00:42;;;;;;;;;;;;;;;;;;5028142;28;1150;-76
2022/05/05 01:03:11;;;;;;;;;;;;;;;;;;5043719;28;1160;-76
2022/05/05 01:05:38;;;;;;;;;;;;;;;;;;5042638;28;1159;-77
2022/05/05 01:08:03;;;;;;;;;;;;;;;;;;5043204;28;1438;-76
2022/05/05 01:10:29;;;;;;;;;;;;;;;;;;5039791;28;1333;-77
2022/05/05 01:12:54;;;;;;;;;;;;;;;;;;5024909;28;1106;-76
2022/05/05 01:15:20;;;;;;;;;;;;;;;;;;5022698;28;1176;-77
2022/05/05 01:17:45;;;;;;;;;;;;;;;;;;5008234;28;2240;-77
2022/05/05 01:20:14;;;;;;;;;;;;;;;;;;5021081;28;1291;-77
2022/05/05 01:22:39;;;;;;;;;;;;;;;;;;5023006;28;1149;-77
2022/05/05 01:30:32;;;;;;;;;;;;;;;;;;5042719;28;993;-77
2022/05/05 01:32:58;;;;;;;;;;;;;;;;;;5043085;28;1134;-77
2022/05/05 01:35:23;;;;;;;;;;;;;;;;;;5030119;28;1008;-78
2022/05/05 01:37:48;;;;;;;;;;;;;;;;;;5045712;28;1985;-77
2022/05/05 01:40:16;;;;;;;;;;;;;;;;;;5040413;28;1306;-77
2022/05/05 01:42:41;;;;;;;;;;;;;;;;;;5027939;28;1346;-77
2022/05/05 01:45:06;;;;;;;;;;;;;;;;;;5023351;28;1288;-78
2022/05/05 01:47:32;;;;;;;;;;;;;;;;;;5004528;28;1229;-77
2022/05/05 01:50:00;;;;;;;;;;;;;;;;;;5026261;28;1240;-78
2022/05/05 01:52:27;;;;;;;;;;;;;;;;;;5020677;28;1273;-78
2022/05/05 01:54:53;;;;;;;;;;;;;;;;;;5043363;28;1200;-77
2022/05/05 01:57:18;;;;;;;;;;;;;;;;;;5014680;28;1960;-77
2022/05/05 01:59:43;;;;;;;;;;;;;;;;;;5010881;28;1386;-77
2022/05/05 02:02:09;;;;;;;;;;;;;;;;;;5040855;28;1519;-77
2022/05/05 02:04:34;;;;;;;;;;;;;;;;;;5026861;28;1179;-77
2022/05/05 02:06:59;;;;;;;;;;;;;;;;;;5036057;28;1479;-77
2022/05/05 02:09:24;;;;;;;;;;;;;;;;;;5032504;28;1034;-78
2022/05/05 02:11:50;;;;;;;;;;;;;;;;;;5023426;28;1327;-78
2022/05/05 02:14:17;;;;;;;;;;;;;;;;;;5020900;28;1221;-77
2022/05/05 02:16:42;;;;;;;;;;;;;;;;;;5021832;28;1214;-77
2022/05/05 02:19:07;;;;;;;;;;;;;;;;;;5021889;28;1945;-77
2022/05/05 02:21:32;;;;;;;;;;;;;;;;;;4999354;28;1200;-77
2022/05/05 02:23:58;;;;;;;;;;;;;;;;;;5004961;28;1288;-77
2022/05/05 02:26:23;;;;;;;;;;;;;;;;;;5030345;28;1097;-78
2022/05/05 02:28:49;;;;;;;;;;;;;;;;;;5028774;28;1316;-77
2022/05/05 02:31:15;;;;;;;;;;;;;;;;;;5026370;28;1260;-76
2022/05/05 02:33:41;;;;;;;;;;;;;;;;;;5028498;28;1237;-77
2022/05/05 02:38:55;;;;;;;;;;;;;;;;;;5046878;28;1906;-77
2022/05/05 02:41:20;;;;;;;;;;;;;;;;;;5024816;28;1679;-76
2022/05/05 02:43:46;;;;;;;;;;;;;;;;;;5026909;28;1129;-77
2022/05/05 02:46:11;;;;;;;;;;;;;;;;;;5006122;28;1477;-77
2022/05/05 02:48:37;;;;;;;;;;;;;;;;;;5022960;28;1291;-77
2022/05/05 02:51:02;;;;;;;;;;;;;;;;;;5006431;28;1223;-77
2022/05/05 02:56:21;;;;;;;;;;;;;;;;;;5025262;28;1049;-77
2022/05/05 02:58:46;;;;;;;;;;;;;;;;;;5035837;28;1921;-77
2022/05/05 03:01:15;;;;;;;;;;;;;;;;;;5044607;28;1239;-77
2022/05/05 03:03:40;;;;;;;;;;;;;;;;;;5027306;28;1232;-77
2022/05/05 03:06:06;;;;;;;;;;;;;;;;;;5042434;28;1230;-77
2022/05/05 03:08:31;;;;;;;;;;;;;;;;;;5025447;28;1431;-76
2022/05/05 03:10:56;;;;;;;;;;;;;;;;;;5042490;28;1192;-76
2022/05/05 03:13:21;;;;;;;;;;;;;;;;;;5043101;28;1180;-76
2022/05/05 03:15:46;;;;;;;;;;;;;;;;;;5028432;28;1345;-76
2022/05/05 03:18:12;;;;;;;;;;;;;;;;;;5045250;28;1902;-76
2022/05/05 03:20:37;;;;;;;;;;;;;;;;;;5006651;28;1144;-78
2022/05/05 03:23:02;;;;;;;;;;;;;;;;;;5024913;28;1257;-77
2022/05/05 03:25:28;;;;;;;;;;;;;;;;;;5020561;28;1187;-77
2022/05/05 03:27:53;;;;;;;;;;;;;;;;;;5045352;28;1424;-78
2022/05/05 03:30:19;;;;;;;;;;;;;;;;;;5044423;28;1239;-77
2022/05/05 03:32:45;;;;;;;;;;;;;;;;;;5026229;28;1268;-77
2022/05/05 03:35:10;;;;;;;;;;;;;;;;;;5041970;28;1156;-77
2022/05/05 03:37:35;;;;;;;;;;;;;;;;;;5015335;28;1993;-78
2022/05/05 03:40:00;;;;;;;;;;;;;;;;;;5045884;28;1206;-76
2022/05/05 03:42:26;;;;;;;;;;;;;;;;;;5039875;28;1160;-77
2022/05/05 03:44:54;;;;;;;;;;;;;;;;;;5044047;28;1284;-76
2022/05/05 03:47:23;;;;;;;;;;;;;;;;;;5043706;28;1328;-78
2022/05/05 03:49:49;;;;;;;;;;;;;;;;;;5041790;28;1142;-76
2022/05/05 03:52:15;;;;;;;;;;;;;;;;;;5027729;28;1423;-76
2022/05/05 03:54:41;;;;;;;;;;;;;;;;;;5023910;28;1199;-77
2022/05/05 03:57:08;;;;;;;;;;;;;;;;;;5023410;28;1211;-77
2022/05/05 03:59:33;;;;;;;;;;;;;;;;;;5043540;28;1910;-75
2022/05/05 04:01:59;;;;;;;;;;;;;;;;;;5038936;28;1167;-75
2022/05/05 04:04:27;;;;;;;;;;;;;;;;;;5025659;28;1149;-77
2022/05/05 04:06:55;;;;;;;;;;;;;;;;;;5022732;28;1216;-78
2022/05/05 04:09:21;;;;;;;;;;;;;;;;;;5027217;28;1082;-76
2022/05/05 04:11:47;;;;;;;;;;;;;;;;;;5036080;28;1126;-77
2022/05/05 04:14:12;;;;;;;;;;;;;;;;;;5045996;28;1341;-77
2022/05/05 04:16:38;;;;;;;;;;;;;;;;;;5039362;28;1137;-77
2022/05/05 04:19:04;;;;;;;;;;;;;;;;;;5025471;28;1930;-76
2022/05/05 04:21:31;;;;;;;;;;;;;;;;;;5030910;28;1382;-78
2022/05/05 04:23:59;;;;;;;;;;;;;;;;;;5021988;28;1545;-77
2022/05/05 04:26:53;;;;;;;;;;;;;;;;;;5021878;28;1149;-81
2022/05/05 04:29:27;;;;;;;;;;;;;;;;;;5008658;28;1364;-76
2022/05/05 04:31:53;;;;;;;;;;;;;;;;;;5027026;28;1153;-76
2022/05/05 04:34:18;;;;;;;;;;;;;;;;;;5012931;28;1396;-77
2022/05/05 04:36:44;;;;;;;;;;;;;;;;;;5023763;28;1040;-77
2022/05/05 04:39:09;;;;;;;;;;;;;;;;;;5043334;28;1930;-76
2022/05/05 04:41:35;;;;;;;;;;;;;;;;;;5039330;28;1633;-77
2022/05/05 04:44:00;;;;;;;;;;;;;;;;;;5044815;28;1156;-77
2022/05/05 04:46:29;;;;;;;;;;;;;;;;;;5025026;28;1202;-77
2022/05/05 04:48:56;;;;;;;;;;;;;;;;;;5042346;28;1227;-77
2022/05/05 04:51:21;;;;;;;;;;;;;;;;;;5026892;28;1208;-77
2022/05/05 04:53:47;;;;;;;;;;;;;;;;;;5022935;28;1298;-76
2022/05/05 04:56:14;;;;;;;;;;;;;;;;;;5022013;28;1378;-76
2022/05/05 04:58:39;;;;;;;;;;;;;;;;;;5026316;28;1916;-76
2022/05/05 05:01:04;;;;;;;;;;;;;;;;;;5025835;28;1320;-77
2022/05/05 05:03:32;;;;;;;;;;;;;;;;;;5044400;28;1140;-77
2022/05/05 05:05:58;;;;;;;;;;;;;;;;;;5015574;28;1282;-76
2022/05/05 05:08:27;;;;;;;;;;;;;;;;;;5041871;28;1357;-77
2022/05/05 05:10:52;;;;;;;;;;;;;;;;;;5039503;28;1236;-76
2022/05/05 05:13:17;;;;;;;;;;;;;;;;;;5032972;28;1388;-76
2022/05/05 05:15:42;;;;;;;;;;;;;;;;;;5043557;28;1065;-76
2022/05/05 05:18:08;;;;;;;;;;;;;;;;;;5038930;28;1977;-76
2022/05/05 05:20:33;;;;;;;;;;;;;;;;;;5020877;28;1157;-76
2022/05/05 05:22:58;;;;;;;;;;;;;;;;;;5036058;28;1197;-75
2022/05/05 05:25:23;;;;;;;;;;;;;;;;;;5025629;28;1379;-76
2022/05/05 05:27:49;;;;;;;;;;;;;;;;;;5041222;28;1081;-76
2022/05/05 05:30:14;;;;;;;;;;;;;;;;;;5026871;28;1283;-76
2022/05/05 05:32:39;;;;;;;;;;;;;;;;;;5041862;28;1105;-76
2022/05/05 05:35:08;;;;;;;;;;;;;;;;;;5007074;28;1162;-77
2022/05/05 05:37:49;;;;;;;;;;;;;;;;;;5020614;28;2002;-76
2022/05/05 05:40:18;;;;;;;;;;;;;;;;;;5042266;28;1188;-78
2022/05/05 05:42:45;;;;;;;;;;;;;;;;;;5036035;28;1073;-77
2022/05/05 05:45:11;;;;;;;;;;;;;;;;;;5024071;28;1182;-78
2022/05/05 05:47:42;;;;;;;;;;;;;;;;;;5032453;28;1239;-78
2022/05/05 05:50:23;;;;;;;;;;;;;;;;;;5028786;28;1162;-77
2022/05/05 05:53:14;;;;;;;;;;;;;;;;;;;;;
2022/05/05 05:55:56;;;;;;;;;;;;;;;;;;;;;
2022/05/05 05:58:25;;;;;;;;;;;;;;;;;;5024830;28;1934;-77
2022/05/05 06:01:23;;;;;;;;;;;;;;;;;;;;;
2022/05/05 06:03:56;;;;;;;;;;;;;;;;;;5029138;28;1201;-77
2022/05/05 06:06:38;;;;;;;;;;;;;;;;;;5032208;28;1265;-81
2022/05/05 06:09:03;;;;;;;;;;;;;;;;;;5039139;28;1120;-76
2022/05/05 06:11:39;;;;;;;;;;;;;;;;;;5038601;28;1413;-75
2022/05/05 06:14:04;;;;;;;;;;;;;;;;;;5035775;28;1251;-75
2022/05/05 06:16:50;;;;;;;;;;;;;;;;;;5046309;28;1160;-75
2022/05/05 06:19:23;;;;;;;;;;;;;;;;;;5047034;28;1934;-76
2022/05/05 06:21:50;;;;;;;;;;;;;;;;;;5039854;28;1206;-77
2022/05/05 06:24:15;;;;;;;;;;;;;;;;;;5030728;28;1164;-77
2022/05/05 06:26:43;;;;;;;;;;;;;;;;;;5043142;28;1181;-78
2022/05/05 06:29:09;;;;;;;;;;;;;;;;;;5048337;28;1211;-76
2022/05/05 06:31:35;;;;;;;;;;;;;;;;;;5044387;28;1196;-79
2022/05/05 06:34:00;;;;;;;;;;;;;;;;;;5046785;28;1363;-78
2022/05/05 06:36:26;;;;;;;;;;;;;;;;;;5042252;28;1164;-77
2022/05/05 06:38:52;;;;;;;;;;;;;;;;;;5045117;28;1906;-76
2022/05/05 06:41:17;;;;;;;;;;;;;;;;;;5042696;28;1285;-77
2022/05/05 06:43:43;;;;;;;;;;;;;;;;;;5019922;28;1270;-76
2022/05/05 06:46:08;;;;;;;;;;;;;;;;;;5032277;28;1319;-77
2022/05/05 06:48:37;;;;;;;;;;;;;;;;;;5027196;28;1169;-77
2022/05/05 06:51:03;;;;;;;;;;;;;;;;;;5024799;28;1384;-77
2022/05/05 06:53:28;;;;;;;;;;;;;;;;;;5007475;28;1264;-77
2022/05/05 06:55:57;;;;;;;;;;;;;;;;;;5023702;28;1180;-78
2022/05/05 06:58:22;;;;;;;;;;;;;;;;;;5026408;28;1926;-78
2022/05/05 07:03:31;;;;;;;;;;;;;;;;;;5027478;28;1025;-77
2022/05/05 07:05:57;;;;;;;;;;;;;;;;;;5021886;28;1260;-78
2022/05/05 07:08:22;;;;;;;;;;;;;;;;;;5024453;28;1138;-77
2022/05/05 07:10:54;;;;;;;;;;;;;;;;;;5006364;28;1656;-78
2022/05/05 07:13:20;;;;;;;;;;;;;;;;;;5038983;28;1297;-78
2022/05/05 07:15:45;;;;;;;;;;;;;;;;;;5038593;28;1217;-77
2022/05/05 07:18:11;;;;;;;;;;;;;;;;;;5025596;28;1887;-78
2022/05/05 07:20:37;;;;;;;;;;;;;;;;;;5026078;28;1296;-77
2022/05/05 07:23:04;;;;;;;;;;;;;;;;;;5027880;28;1304;-77
2022/05/05 07:25:29;;;;;;;;;;;;;;;;;;5026251;28;1309;-77
2022/05/05 07:27:55;;;;;;;;;;;;;;;;;;5045192;28;1217;-77
2022/05/05 07:30:21;;;;;;;;;;;;;;;;;;5045203;28;1311;-77
2022/05/05 07:32:46;;;;;;;;;;;;;;;;;;5043220;28;1286;-77
2022/05/05 07:35:12;;;;;;;;;;;;;;;;;;5040592;28;1152;-78
2022/05/05 07:37:39;;;;;;;;;;;;;;;;;;5034251;28;1922;-76
2022/05/05 07:40:05;;;;;;;;;;;;;;;;;;5026800;28;1293;-76
2022/05/05 07:42:30;;;;;;;;;;;;;;;;;;5025333;28;1077;-77
2022/05/05 07:44:55;;;;;;;;;;;;;;;;;;5023531;28;1149;-76
2022/05/05 07:47:21;;;;;;;;;;;;;;;;;;5031632;28;1232;-76
2022/05/05 07:49:47;;;;;;;;;;;;;;;;;;5043790;28;1314;-78
2022/05/05 07:52:12;;;;;;;;;;;;;;;;;;5022312;28;1211;-77
2022/05/05 07:54:39;;;;;;;;;;;;;;;;;;5038634;28;1231;-78
2022/05/05 07:57:08;;;;;;;;;;;;;;;;;;5038041;28;1244;-77
2022/05/05 07:59:34;;;;;;;;;;;;;;;;;;5031359;28;1885;-77
2022/05/05 08:01:59;;;;;;;;;;;;;;;;;;5029781;28;1200;-76
2022/05/05 08:04:25;;;;;;;;;;;;;;;;;;5031542;28;1148;-76
2022/05/05 08:06:53;;;;;;;;;;;;;;;;;;5017146;28;1398;-76
2022/05/05 08:09:18;;;;;;;;;;;;;;;;;;5036010;28;1113;-77
2022/05/05 08:11:44;;;;;;;;;;;;;;;;;;5028293;28;1181;-77
2022/05/05 08:14:10;;;;;;;;;;;;;;;;;;5043514;28;1173;-76
2022/05/05 08:16:35;;;;;;;;;;;;;;;;;;5035089;28;1322;-76
2022/05/05 08:19:00;;;;;;;;;;;;;;;;;;5025012;28;1886;-77
2022/05/05 08:21:26;;;;;;;;;;;;;;;;;;5026899;28;1247;-78
2022/05/05 08:28:27;;;;;;;;;;;;;;;;;;5037385;28;1302;-76
2022/05/05 08:29:29;;;;;;;;;;;;;;;;;;5031493;28;1009;-76
2022/05/05 08:31:55;;;;;;;;;;;;;;;;;;5024915;28;1133;-76
2022/05/05 08:34:20;;;;;;;;;;;;;;;;;;5008958;28;1255;-77
2022/05/05 08:36:46;;;;;;;;;;;;;;;;;;5020601;28;1264;-77
2022/05/05 08:39:11;;;;;;;;;;;;;;;;;;5008935;28;1907;-76
2022/05/05 08:41:38;;;;;;;;;;;;;;;;;;5026794;28;1141;-76
2022/05/05 08:44:03;;;;;;;;;;;;;;;;;;5043963;28;1215;-77
2022/05/05 08:46:32;;;;;;;;;;;;;;;;;;5018240;28;1288;-77
2022/05/05 08:48:59;;;;;;;;;;;;;;;;;;5043242;28;1212;-79
2022/05/05 08:51:25;;;;;;;;;;;;;;;;;;5023195;28;1257;-77
2022/05/05 08:53:53;;;;;;;;;;;;;;;;;;5041322;28;1393;-79
2022/05/05 08:56:18;;;;;;;;;;;;;;;;;;5022310;28;1282;-79
2022/05/05 08:58:47;;;;;;;;;;;;;;;;;;5006293;28;1902;-79
2022/05/05 09:01:13;;;;;;;;;;;;;;;;;;5022908;28;1224;-81
2022/05/05 09:03:38;;;;;;;;;;;;;;;;;;5009492;28;1535;-79
2022/05/05 09:06:04;;;;;;;;;;;;;;;;;;5022487;28;1304;-79
2022/05/05 09:08:31;;;;;;;;;;;;;;;;;;5042982;28;1362;-79
2022/05/05 09:10:58;;;;;;;;;;;;;;;;;;5041772;28;1116;-78
2022/05/05 09:13:25;;;;;;;;;;;;;;;;;;5045602;28;1141;-78
2022/05/05 09:15:51;;;;;;;;;;;;;;;;;;5023163;28;1203;-78
2022/05/05 09:18:19;;;;;;;;;;;;;;;;;;5031476;28;1882;-79
2022/05/05 09:20:48;;;;;;;;;;;;;;;;;;5041975;28;1336;-78
2022/05/05 09:23:28;;;;;;;;;;;;;;;;;;5026575;28;1276;-78
2022/05/05 09:25:53;;;;;;;;;;;;;;;;;;5019914;28;1224;-80
2022/05/05 09:28:22;;;;;;;;;;;;;;;;;;5025720;28;1371;-79
2022/05/05 09:30:49;;;;;;;;;;;;;;;;;;5024845;28;1347;-79
2022/05/05 09:33:34;;;;;;;;;;;;;;;;;;5044852;28;1224;-79
2022/05/05 09:36:02;;;;;;;;;;;;;;;;;;5037922;28;1054;-79
2022/05/05 09:38:53;;;;;;;;;;;;;;;;;;5040142;28;1969;-78
2022/05/05 09:41:28;;;;;;;;;;;;;;;;;;5040552;28;1341;-78
2022/05/05 09:43:55;;;;;;;;;;;;;;;;;;5043324;28;1169;-79
2022/05/05 09:46:23;;;;;;;;;;;;;;;;;;5042029;28;1157;-77
2022/05/05 09:48:52;;;;;;;;;;;;;;;;;;5030948;28;1195;-79
2022/05/05 09:51:18;;;;;;;;;;;;;;;;;;5034036;28;1311;-75
2022/05/05 09:59:14;;;;;;;;;;;;;;;;;;5034109;28;1941;-79
2022/05/05 10:01:41;;;;;;;;;;;;;;;;;;5004990;28;1370;-78
2022/05/05 10:04:09;;;;;;;;;;;;;;;;;;5004880;28;1200;-80
2022/05/05 10:06:40;;;;;;;;;;;;;;;;;;5022537;28;1181;-79
2022/05/05 10:09:10;;;;;;;;;;;;;;;;;;5022047;28;1248;-79
2022/05/05 10:11:35;;;;;;;;;;;;;;;;;;5033099;28;1135;-78
2022/05/05 10:14:02;;;;;;;;;;;;;;;;;;5026265;28;1169;-75
2022/05/05 10:16:30;;;;;;;;;;;;;;;;;;5041122;28;1201;-78
2022/05/05 10:18:56;;;;;;;;;;;;;;;;;;5039508;28;1886;-78
2022/05/05 10:21:40;;;;;;;;;;;;;;;;;;5029730;28;1310;-77
2022/05/05 10:24:09;;;;;;;;;;;;;;;;;;5025971;28;1331;-77
2022/05/05 10:26:35;;;;;;;;;;;;;;;;;;5020529;28;1133;-77
2022/05/05 10:29:01;;;;;;;;;;;;;;;;;;5021262;28;1311;-78
2022/05/05 10:31:29;;;;;;;;;;;;;;;;;;5024548;28;1157;-79
2022/05/05 10:34:02;;;;;;;;;;;;;;;;;;5021833;28;1169;-78
2022/05/05 10:36:28;;;;;;;;;;;;;;;;;;5022464;28;1251;-78
2022/05/05 10:38:57;;;;;;;;;;;;;;;;;;5032085;28;1910;-78
2022/05/05 10:41:31;;;;;;;;;;;;;;;;;;5031694;28;1118;-76
2022/05/05 10:44:15;;;;;;;;;;;;;;;;;;5023309;28;1192;-75
2022/05/05 10:46:55;;;;;;;;;;;;;;;;;;5031027;28;1113;-76
2022/05/05 10:49:30;;;;;;;;;;;;;;;;;;5028395;28;1141;-74
2022/05/05 10:52:10;;;;;;;;;;;;;;;;;;5025993;28;1182;-74
2022/05/05 10:54:46;;;;;;;;;;;;;;;;;;5031944;28;1454;-76
2022/05/05 10:57:27;;;;;;;;;;;;;;;;;;5042150;28;1073;-75
2022/05/05 11:00:06;;;;;;;;;;;;;;;;;;5043488;28;1882;-75
2022/05/05 11:02:31;;;;;;;;;;;;;;;;;;5038220;28;1141;-75
2022/05/05 11:05:15;;;;;;;;;;;;;;;;;;5024215;28;1203;-75
2022/05/05 11:07:43;;;;;;;;;;;;;;;;;;5023004;28;1267;-75
2022/05/05 11:10:27;;;;;;;;;;;;;;;;;;5033838;28;1286;-75
2022/05/05 11:12:52;;;;;;;;;;;;;;;;;;5040525;28;1195;-75
2022/05/05 11:21:33;;;;;;;;;;;;;;;;;;5038392;28;1355;-76
2022/05/05 11:24:01;;;;;;;;;;;;;;;;;;5025513;28;1311;-75
2022/05/05 11:26:27;;;;;;;;;;;;;;;;;;5032767;28;1311;-75
2022/05/05 11:28:53;;;;;;;;;;;;;;;;;;5027887;28;1141;-75
2022/05/05 11:31:19;;;;;;;;;;;;;;;;;;5023027;28;1432;-77
2022/05/05 11:33:53;;;;;;;;;;;;;;;;;;5031311;28;1199;-77
2022/05/05 11:36:19;;;;;;;;;;;;;;;;;;5021044;28;1396;-80
2022/05/05 11:38:44;;;;;;;;;;;;;;;;;;5030233;28;1906;-75
2022/05/05 11:41:10;;;;;;;;;;;;;;;;;;5002722;28;1168;-78
2022/05/05 11:46:19;;;;;;;;;;;;;;;;;;5029734;28;1009;-79
2022/05/05 11:48:53;;;;;;;;;;;;;;;;;;5030847;28;1347;-79
2022/05/05 11:51:26;;;;;;;;;;;;;;;;;;5043038;28;1338;-80
2022/05/05 11:54:01;;;;;;;;;;;;;;;;;;5030784;28;1358;-79
2022/05/05 11:56:27;;;;;;;;;;;;;;;;;;5022947;28;1211;-79
2022/05/05 12:01:37;;;;;;;;;;;;;;;;;;5033088;28;1010;-79
2022/05/05 12:04:03;;;;;;;;;;;;;;;;;;5046611;28;1201;-79
2022/05/05 12:06:29;;;;;;;;;;;;;;;;;;5042472;28;1288;-79
2022/05/05 12:09:04;;;;;;;;;;;;;;;;;;5046010;28;1247;-78
2022/05/05 12:11:29;;;;;;;;;;;;;;;;;;5026419;28;1220;-79
2022/05/05 12:14:06;;;;;;;;;;;;;;;;;;5045915;28;1194;-79
2022/05/05 12:16:35;;;;;;;;;;;;;;;;;;5038110;28;1090;-79
2022/05/05 12:19:09;;;;;;;;;;;;;;;;;;5023619;28;1882;-79
2022/05/05 12:21:34;;;;;;;;;;;;;;;;;;5033865;28;1149;-78
2022/05/05 12:24:08;;;;;;;;;;;;;;;;;;5022978;28;1196;-79
2022/05/05 12:26:38;;;;;;;;;;;;;;;;;;5023135;28;1244;-78
2022/05/05 12:29:14;;;;;;;;;;;;;;;;;;5025194;28;1180;-78
2022/05/05 12:31:39;;;;;;;;;;;;;;;;;;5024004;28;1266;-78
2022/05/05 12:34:19;;;;;;;;;;;;;;;;;;5025003;28;1137;-78
2022/05/05 12:36:44;;;;;;;;;;;;;;;;;;5021185;28;1132;-79
2022/05/05 12:39:13;;;;;;;;;;;;;;;;;;5023018;28;1918;-79
2022/05/05 12:41:55;;;;;;;;;;;;;;;;;;5020223;28;1405;-80
2022/05/05 12:44:20;;;;;;;;;;;;;;;;;;5031366;28;1360;-79
2022/05/05 12:46:52;;;;;;;;;;;;;;;;;;5043682;28;1235;-79
2022/05/05 12:49:32;;;;;;;;;;;;;;;;;;5045519;28;1355;-80
2022/05/05 12:51:58;;;;;;;;;;;;;;;;;;5035857;28;1016;-79
2022/05/05 12:59:36;;;;;;;;;;;;;;;;;;5021617;28;1057;-86
2022/05/05 12:59:56;;;;;;;;;;;;;;;;;;5030172;28;1957;-82
2022/05/05 13:02:21;;;;;;;;;;;;;;;;;;5022966;28;1173;-77
2022/05/05 13:04:48;;;;;;;;;;;;;;;;;;5031427;28;1299;-78
2022/05/05 13:07:13;;;;;;;;;;;;;;;;;;5015570;28;1110;-75
2022/05/05 13:09:39;;;;;;;;;;;;;;;;;;5025973;28;1189;-79
2022/05/05 13:12:10;;;;;;;;;;;;;;;;;;5025794;28;1168;-79
2022/05/05 13:14:35;;;;;;;;;;;;;;;;;;5006216;28;1234;-79
2022/05/05 13:17:01;;;;;;;;;;;;;;;;;;5005018;28;1217;-79
2022/05/05 13:19:29;;;;;;;;;;;;;;;;;;5022996;28;1914;-79
2022/05/05 13:21:54;;;;;;;;;;;;;;;;;;5019190;28;1464;-80
2022/05/05 13:24:19;;;;;;;;;;;;;;;;;;5022501;28;1259;-79
2022/05/05 13:26:45;;;;;;;;;;;;;;;;;;5020933;28;1145;-79
2022/05/05 13:29:11;;;;;;;;;;;;;;;;;;5021509;28;1215;-79
2022/05/05 13:31:36;;;;;;;;;;;;;;;;;;5005839;28;1378;-78
2022/05/05 13:34:02;;;;;;;;;;;;;;;;;;5034953;28;1232;-79
2022/05/05 13:36:28;;;;;;;;;;;;;;;;;;5036400;28;1195;-79
2022/05/05 13:38:53;;;;;;;;;;;;;;;;;;5023580;28;1915;-79
2022/05/05 13:41:18;;;;;;;;;;;;;;;;;;5007425;28;1210;-79
2022/05/05 13:43:43;;;;;;;;;;;;;;;;;;5036634;28;1131;-80
2022/05/05 13:46:10;;;;;;;;;;;;;;;;;;5024977;28;784;-79
2022/05/05 13:48:36;;;;;;;;;;;;;;;;;;5023656;28;1259;-79
2022/05/05 13:51:04;;;;;;;;;;;;;;;;;;5023396;28;1277;-78
2022/05/05 13:53:29;;;;;;;;;;;;;;;;;;5021644;28;1222;-80
2022/05/05 13:55:54;;;;;;;;;;;;;;;;;;5024950;28;1195;-79
2022/05/05 13:58:26;;;;;;;;;;;;;;;;;;5021749;28;1951;-79
2022/05/05 14:00:51;;;;;;;;;;;;;;;;;;5025759;28;1103;-79
2022/05/05 14:03:16;;;;;;;;;;;;;;;;;;5023715;28;858;-79
2022/05/05 14:05:43;;;;;;;;;;;;;;;;;;5022399;28;1141;-79
2022/05/05 14:13:45;;;;;;;;;;;;;;;;;;5024403;28;1227;-78
2022/05/05 14:16:18;;;;;;;;;;;;;;;;;;5031095;28;1134;-83
2022/05/05 14:18:44;;;;;;;;;;;;;;;;;;5044830;28;1977;-84
2022/05/05 14:21:20;;;;;;;;;;;;;;;;;;5022341;28;1221;-79
2022/05/05 14:23:46;;;;;;;;;;;;;;;;;;5041572;28;1239;-80
2022/05/05 14:26:17;;;;;;;;;;;;;;;;;;5020301;28;1174;-83
2022/05/05 14:28:42;;;;;;;;;;;;;;;;;;5027537;28;1102;-82
2022/05/05 14:31:08;;;;;;;;;;;;;;;;;;5029269;28;1235;-84
2022/05/05 14:33:33;;;;;;;;;;;;;;;;;;5021859;28;1217;-82
2022/05/05 14:35:58;;;;;;;;;;;;;;;;;;5043365;28;1195;-78
2022/05/05 14:38:23;;;;;;;;;;;;;;;;;;5034500;28;1913;-82
2022/05/05 14:40:49;;;;;;;;;;;;;;;;;;5030340;28;1097;-83
2022/05/05 14:43:15;;;;;;;;;;;;;;;;;;5026280;28;1159;-81
2022/05/05 14:45:41;;;;;;;;;;;;;;;;;;5024131;28;1161;-83
2022/05/05 14:48:07;;;;;;;;;;;;;;;;;;5027459;28;1114;-81
2022/05/05 14:50:32;;;;;;;;;;;;;;;;;;5042414;28;1071;-83
2022/05/05 14:52:58;;;;;;;;;;;;;;;;;;5029391;28;1407;-83
2022/05/05 14:55:23;;;;;;;;;;;;;;;;;;5028191;28;1176;-83
2022/05/05 14:57:48;;;;;;;;;;;;;;;;;;5046286;28;1128;-80
2022/05/05 15:00:17;;;;;;;;;;;;;;;;;;5044430;28;1894;-77
2022/05/05 15:02:43;;;;;;;;;;;;;;;;;;5025587;28;1184;-80
2022/05/05 15:05:10;;;;;;;;;;;;;;;;;;5043864;28;1177;-81
2022/05/05 15:07:36;;;;;;;;;;;;;;;;;;5036352;28;1334;-80
2022/05/05 15:10:02;;;;;;;;;;;;;;;;;;5009175;28;1243;-78
2022/05/05 15:12:27;;;;;;;;;;;;;;;;;;5012605;28;1326;-79
2022/05/05 15:14:53;;;;;;;;;;;;;;;;;;5040971;28;1153;-77
2022/05/05 15:17:21;;;;;;;;;;;;;;;;;;5032308;28;1361;-75
2022/05/05 15:19:46;;;;;;;;;;;;;;;;;;5025960;28;1898;-80
2022/05/05 15:22:13;;;;;;;;;;;;;;;;;;5028506;28;1193;-80
2022/05/05 15:24:38;;;;;;;;;;;;;;;;;;5028539;28;1287;-81
2022/05/05 15:27:04;;;;;;;;;;;;;;;;;;5025362;28;1503;-80
2022/05/05 15:29:29;;;;;;;;;;;;;;;;;;5027650;28;1275;-81
2022/05/05 15:31:54;;;;;;;;;;;;;;;;;;5028285;28;1223;-79
2022/05/05 15:34:20;;;;;;;;;;;;;;;;;;5046420;28;1302;-79
2022/05/05 15:36:46;;;;;;;;;;;;;;;;;;5019036;28;1318;-81
2022/05/05 15:39:11;;;;;;;;;;;;;;;;;;5036696;28;1977;-76
2022/05/05 15:41:36;;;;;;;;;;;;;;;;;;5025640;28;1179;-75
2022/05/05 15:44:02;;;;;;;;;;;;;;;;;;5023572;28;1172;-77
2022/05/05 15:46:27;;;;;;;;;;;;;;;;;;5026064;28;1168;-74
2022/05/05 15:48:52;;;;;;;;;;;;;;;;;;5025347;28;1133;-76
2022/05/05 15:51:24;;;;;;;;;;;;;;;;;;5037477;28;1299;-77
2022/05/05 15:53:49;;;;;;;;;;;;;;;;;;5020009;28;1180;-77
2022/05/05 15:56:14;;;;;;;;;;;;;;;;;;5036893;28;1413;-75
2022/05/05 15:58:40;;;;;;;;;;;;;;;;;;5022042;28;1886;-74
2022/05/05 16:01:06;;;;;;;;;;;;;;;;;;5022471;28;1037;-74
2022/05/05 16:03:33;;;;;;;;;;;;;;;;;;5017969;28;1145;-75
2022/05/05 16:05:58;;;;;;;;;;;;;;;;;;5019128;28;1451;-75
2022/05/05 16:08:24;;;;;;;;;;;;;;;;;;5017427;28;1052;-76
2022/05/05 16:10:49;;;;;;;;;;;;;;;;;;5001073;28;1318;-76
2022/05/05 16:13:14;;;;;;;;;;;;;;;;;;5021574;28;1153;-74
2022/05/05 16:15:40;;;;;;;;;;;;;;;;;;5015686;28;1165;-77
2022/05/05 16:18:05;;;;;;;;;;;;;;;;;;5035573;28;1945;-76
2022/05/05 16:20:30;;;;;;;;;;;;;;;;;;5035466;28;1106;-76
2022/05/05 16:22:56;;;;;;;;;;;;;;;;;;5039106;28;1397;-75
2022/05/05 16:30:58;;;;;;;;;;;;;;;;;;5021237;28;958;-76
2022/05/05 16:33:26;;;;;;;;;;;;;;;;;;5025986;28;1137;-76
2022/05/05 16:35:52;;;;;;;;;;;;;;;;;;5036782;28;1389;-77
2022/05/05 16:38:17;;;;;;;;;;;;;;;;;;5037538;28;1910;-75
2022/05/05 16:40:42;;;;;;;;;;;;;;;;;;5035365;28;1093;-75
2022/05/05 16:43:09;;;;;;;;;;;;;;;;;;5019942;28;1359;-76
2022/05/05 16:45:35;;;;;;;;;;;;;;;;;;5036545;28;1081;-76
2022/05/05 16:48:04;;;;;;;;;;;;;;;;;;5038762;28;1193;-74
2022/05/05 16:50:30;;;;;;;;;;;;;;;;;;5031660;28;1240;-76
2022/05/05 16:52:55;;;;;;;;;;;;;;;;;;5034541;28;1192;-76
2022/05/05 16:55:30;;;;;;;;;;;;;;;;;;5034389;28;1238;-76
2022/05/05 16:57:56;;;;;;;;;;;;;;;;;;5037826;28;1252;-76
2022/05/05 17:00:25;;;;;;;;;;;;;;;;;;5034528;28;1965;-77
2022/05/05 17:02:53;;;;;;;;;;;;;;;;;;5038747;28;1341;-78
2022/05/05 17:05:19;;;;;;;;;;;;;;;;;;5037297;28;1147;-76
2022/05/05 17:07:47;;;;;;;;;;;;;;;;;;5027627;28;1372;-74
2022/05/05 17:10:14;;;;;;;;;;;;;;;;;;5013568;28;1089;-78
2022/05/05 17:12:41;;;;;;;;;;;;;;;;;;5021931;28;1345;-79
2022/05/05 17:15:06;;;;;;;;;;;;;;;;;;5029931;28;1263;-78
2022/05/05 17:17:31;;;;;;;;;;;;;;;;;;5036388;28;1174;-76
2022/05/05 17:20:02;;;;;;;;;;;;;;;;;;5032065;28;1997;-78
2022/05/05 17:22:32;;;;;;;;;;;;;;;;;;5039401;28;1157;-79
2022/05/05 17:24:58;;;;;;;;;;;;;;;;;;5037752;28;1200;-79
2022/05/05 17:27:30;;;;;;;;;;;;;;;;;;5037825;28;994;-76
2022/05/05 17:29:55;;;;;;;;;;;;;;;;;;5032298;28;1030;-78
2022/05/05 17:32:21;;;;;;;;;;;;;;;;;;5018740;28;1212;-79
2022/05/05 17:34:46;;;;;;;;;;;;;;;;;;5022802;28;1110;-77
2022/05/05 17:37:11;;;;;;;;;;;;;;;;;;5011560;28;1275;-76
2022/05/05 17:39:37;;;;;;;;;;;;;;;;;;5034847;28;1977;-80
2022/05/05 17:42:04;;;;;;;;;;;;;;;;;;5027058;28;1071;-81
2022/05/05 17:52:43;;;;;;;;;;;;;;;;;;5037411;28;997;-82
2022/05/05 17:55:09;;;;;;;;;;;;;;;;;;5023301;28;1138;-83
2022/05/05 17:57:36;;;;;;;;;;;;;;;;;;5015106;28;1304;-80
2022/05/05 18:00:05;;;;;;;;;;;;;;;;;;5026256;28;1984;-80
2022/05/05 18:02:30;;;;;;;;;;;;;;;;;;5040627;28;1212;-79
2022/05/05 18:04:57;;;;;;;;;;;;;;;;;;5014557;28;1229;-81
2022/05/05 18:07:25;;;;;;;;;;;;;;;;;;5023181;28;1267;-80